Time;durP1;ratioP1;P1;durP2;ratioP2;P2;SDS_P1;SDS_P2;PMS_P1;PMS_P2;Temp;Humidity;BMP_temperature;BMP_pressure;BME280_temperature;BME280_humidity;BME280_pressure;Samples;Min_cycle;Max_cycle;Signal;HPM_P1;HPM_P2
2023/10/02 00:01:06;;;;;;;27.70;12.48;;;19.00;99.90;;;;;;5041095;28;20215;-68
2023/10/02 00:03:34;;;;;;;26.20;12.50;;;19.00;99.90;;;;;;5052848;28;20206;-69
2023/10/02 00:06:00;;;;;;;25.63;12.80;;;18.90;99.90;;;;;;5052024;28;20175;-69
2023/10/02 00:08:36;;;;;;;25.92;13.13;;;19.00;99.90;;;;;;5052218;28;20253;-69
2023/10/02 00:14:19;;;;;;;27.73;12.30;;;18.90;99.90;;;;;;5048926;28;20187;-69
2023/10/02 00:17:00;;;;;;;30.17;12.63;;;18.90;99.90;;;;;;5051520;28;20187;-70
2023/10/02 00:19:40;;;;;;;29.83;13.43;;;18.80;99.90;;;;;;5053100;28;20195;-70
2023/10/02 00:24:58;;;;;;;32.47;13.95;;;18.80;99.90;;;;;;5051916;28;20249;-69
2023/10/02 00:27:24;;;;;;;28.05;13.48;;;18.70;99.90;;;;;;5051763;28;20277;-69
2023/10/02 00:29:57;;;;;;;32.40;13.73;;;18.70;99.90;;;;;;5053057;28;20183;-69
2023/10/02 00:32:26;;;;;;;27.10;13.48;;;18.70;99.90;;;;;;5051387;28;20187;-69
2023/10/02 00:34:53;;;;;;;30.08;14.15;;;18.70;99.90;;;;;;5053028;28;20187;-71
2023/10/02 00:37:19;;;;;;;29.08;13.68;;;18.70;99.90;;;;;;5050352;28;20211;-70
2023/10/02 00:39:47;;;;;;;27.25;14.32;;;18.70;99.90;;;;;;5052254;28;20265;-71
2023/10/02 00:42:28;;;;;;;28.65;13.75;;;18.70;99.90;;;;;;5051738;28;20271;-69
2023/10/02 00:44:56;;;;;;;32.13;13.88;;;18.70;99.90;;;;;;5050080;28;20186;-69
2023/10/02 00:47:47;;;;;;;31.17;14.35;;;18.70;99.90;;;;;;5051689;28;20183;-68
2023/10/02 00:50:48;;;;;;;27.38;13.98;;;18.70;99.90;;;;;;5052293;28;20240;-67
2023/10/02 00:53:19;;;;;;;31.67;15.05;;;18.70;99.90;;;;;;5052260;28;20639;-70
2023/10/02 00:55:46;;;;;;;32.55;14.60;;;18.70;99.90;;;;;;5043048;28;20180;-69
2023/10/02 00:58:15;;;;;;;33.33;14.80;;;18.60;99.90;;;;;;5028149;28;20609;-69
2023/10/02 01:00:47;;;;;;;29.77;15.00;;;18.60;99.90;;;;;;5052027;28;20195;-70
2023/10/02 01:03:16;;;;;;;31.35;15.88;;;18.60;99.90;;;;;;5051914;28;20207;-69
2023/10/02 01:05:54;;;;;;;31.77;15.85;;;18.60;99.90;;;;;;5051571;28;20632;-70
2023/10/02 01:08:24;;;;;;;33.90;14.40;;;18.50;99.90;;;;;;5051303;28;20194;-70
2023/10/02 01:10:56;;;;;;;27.63;14.75;;;18.50;99.90;;;;;;5051306;28;20647;-69
2023/10/02 01:13:30;;;;;;;28.65;14.95;;;18.50;99.90;;;;;;5051734;28;20182;-68
2023/10/02 01:15:59;;;;;;;33.63;15.57;;;18.40;99.90;;;;;;5031708;28;20645;-70
2023/10/02 01:18:29;;;;;;;30.83;15.25;;;18.40;99.90;;;;;;5047985;28;20199;-71
2023/10/02 01:21:00;;;;;;;34.45;16.23;;;18.30;99.90;;;;;;5052073;28;20218;-70
2023/10/02 01:23:37;;;;;;;29.27;15.35;;;18.20;99.90;;;;;;5047219;28;20233;-70
2023/10/02 01:26:03;;;;;;;30.23;16.50;;;18.20;99.90;;;;;;5050163;28;20262;-70
2023/10/02 01:28:49;;;;;;;31.65;16.63;;;18.20;99.90;;;;;;5051175;28;20326;-70
2023/10/02 01:31:31;;;;;;;41.72;18.33;;;18.20;99.90;;;;;;5064861;28;20715;-70
2023/10/02 01:33:59;;;;;;;32.03;16.55;;;18.20;99.90;;;;;;5029465;28;20183;-70
2023/10/02 01:36:30;;;;;;;37.47;17.92;;;18.20;99.90;;;;;;5052008;28;20195;-68
2023/10/02 01:39:10;;;;;;;32.67;17.27;;;18.20;99.90;;;;;;5050819;28;20179;-69
2023/10/02 01:41:52;;;;;;;32.50;16.83;;;18.20;99.90;;;;;;5050911;28;20586;-70
2023/10/02 01:44:22;;;;;;;34.28;16.95;;;18.10;99.90;;;;;;5049093;28;20175;-70
2023/10/02 01:46:50;;;;;;;36.53;17.50;;;18.20;99.90;;;;;;5051684;28;20527;-71
2023/10/02 01:49:26;;;;;;;33.38;17.95;;;18.10;99.90;;;;;;5049702;28;20191;-68
2023/10/02 01:52:13;;;;;;;38.55;17.55;;;18.10;99.90;;;;;;5050376;28;20250;-69
2023/10/02 01:54:40;;;;;;;37.67;17.85;;;18.10;99.90;;;;;;5050274;28;20171;-70
2023/10/02 01:57:07;;;;;;;31.08;17.30;;;18.20;99.90;;;;;;5048892;28;20189;-70
2023/10/02 01:59:33;;;;;;;36.28;17.45;;;18.10;99.90;;;;;;5050349;28;20242;-69
2023/10/02 02:02:12;;;;;;;35.40;17.65;;;18.20;99.90;;;;;;5032937;28;20266;-70
2023/10/02 02:04:38;;;;;;;39.65;18.05;;;18.20;99.90;;;;;;5049356;28;20202;-69
2023/10/02 02:07:07;;;;;;;34.08;18.20;;;18.20;99.90;;;;;;5049492;28;20592;-69
2023/10/02 02:09:37;;;;;;;38.90;18.42;;;18.20;99.90;;;;;;5048980;28;20273;-69
2023/10/02 02:14:50;;;;;;;41.45;18.15;;;18.20;99.90;;;;;;5049734;28;20183;-69
2023/10/02 02:17:24;;;;;;;36.83;17.90;;;18.20;99.90;;;;;;5049356;28;20186;-70
2023/10/02 02:19:50;;;;;;;36.28;18.33;;;18.20;99.90;;;;;;5048472;28;20264;-70
2023/10/02 02:22:31;;;;;;;39.88;19.75;;;18.20;99.90;;;;;;5048659;28;20248;-70
2023/10/02 02:24:58;;;;;;;38.13;18.20;;;18.20;99.90;;;;;;5047879;28;20179;-69
2023/10/02 02:27:24;;;;;;;36.28;18.95;;;18.20;99.90;;;;;;5050149;28;20310;-70
2023/10/02 02:29:54;;;;;;;41.55;19.38;;;18.20;99.90;;;;;;5051312;28;20194;-69
2023/10/02 02:32:36;;;;;;;38.67;19.27;;;18.20;99.90;;;;;;5048580;28;20195;-68
2023/10/02 02:35:05;;;;;;;36.05;19.40;;;18.10;99.90;;;;;;5044442;28;20190;-68
2023/10/02 02:37:32;;;;;;;39.25;18.88;;;18.10;99.90;;;;;;5048619;28;20271;-70
2023/10/02 02:40:22;;;;;;;42.35;19.13;;;18.10;99.90;;;;;;5050550;28;20298;-70
2023/10/02 02:42:46;;;;;;;38.78;18.83;;;18.00;99.90;;;;;;5049523;28;20640;-69
2023/10/02 02:45:31;;;;;;;41.50;19.70;;;18.00;99.90;;;;;;5048936;28;20671;-70
2023/10/02 02:48:07;;;;;;;39.83;18.75;;;17.90;99.90;;;;;;5047577;28;20598;-69
2023/10/02 02:50:40;;;;;;;41.22;19.98;;;17.90;99.90;;;;;;5049768;28;20194;-70
2023/10/02 02:53:16;;;;;;;42.20;19.65;;;17.80;99.90;;;;;;5050515;28;20670;-70
2023/10/02 02:56:22;;;;;;;40.28;19.02;;;17.80;99.90;;;;;;5047281;28;20194;-73
2023/10/02 02:58:52;;;;;;;42.97;19.75;;;17.80;99.90;;;;;;5053643;28;20218;-70
2023/10/02 03:01:23;;;;;;;36.25;18.92;;;17.70;99.90;;;;;;5053909;28;20215;-72
2023/10/02 03:04:10;;;;;;;37.90;20.00;;;17.70;99.90;;;;;;5052275;28;20190;-70
2023/10/02 03:06:36;;;;;;;38.03;19.80;;;17.60;99.90;;;;;;5053048;28;20171;-70
2023/10/02 03:09:05;;;;;;;36.80;19.50;;;17.60;99.90;;;;;;5055158;28;20217;-70
2023/10/02 03:11:32;;;;;;;44.20;20.45;;;17.60;99.90;;;;;;5052833;28;20183;-70
2023/10/02 03:14:12;;;;;;;38.88;19.85;;;17.60;99.90;;;;;;5051040;28;20237;-70
2023/10/02 03:16:39;;;;;;;40.10;20.60;;;17.60;99.90;;;;;;5053926;28;20186;-70
2023/10/02 03:19:07;;;;;;;42.08;20.23;;;17.60;99.90;;;;;;5051704;28;20260;-69
2023/10/02 03:21:38;;;;;;;41.70;20.02;;;17.60;99.90;;;;;;5052540;28;20226;-70
2023/10/02 03:24:07;;;;;;;40.45;20.52;;;17.60;99.90;;;;;;5053305;28;20203;-72
2023/10/02 03:29:04;;;;;;;42.03;21.58;;;17.60;99.90;;;;;;5054396;28;20248;-69
2023/10/02 03:31:34;;;;;;;46.30;22.45;;;17.50;99.90;;;;;;5054821;28;20313;-69
2023/10/02 03:34:27;;;;;;;44.25;20.65;;;17.50;99.90;;;;;;5053544;28;20202;-69
2023/10/02 03:36:55;;;;;;;45.90;21.55;;;17.50;99.90;;;;;;5053847;28;20199;-68
2023/10/02 03:39:51;;;;;;;45.42;21.80;;;17.50;99.90;;;;;;5053938;28;20244;-70
2023/10/02 03:42:12;;;;;;;43.67;22.17;;;17.50;99.90;;;;;;5053554;28;20191;-68
2023/10/02 03:44:45;;;;;;;44.88;21.60;;;17.50;99.90;;;;;;5053521;28;20194;-69
2023/10/02 03:47:12;;;;;;;41.95;21.58;;;17.40;99.90;;;;;;5053132;28;20190;-69
2023/10/02 03:49:43;;;;;;;39.22;20.60;;;17.40;99.90;;;;;;5051656;28;20266;-69
2023/10/02 03:52:10;;;;;;;41.63;21.33;;;17.40;99.90;;;;;;5053792;28;20231;-69
2023/10/02 03:54:37;;;;;;;48.85;21.48;;;17.40;99.90;;;;;;5053656;28;20191;-69
2023/10/02 03:57:03;;;;;;;39.67;21.95;;;17.40;99.90;;;;;;5050387;28;20541;-68
2023/10/02 03:59:32;;;;;;;41.78;21.00;;;17.40;99.90;;;;;;5053227;28;20373;-69
2023/10/02 04:02:24;;;;;;;44.50;21.60;;;17.40;99.90;;;;;;5053051;28;20670;-70
2023/10/02 04:04:46;;;;;;;40.40;21.05;;;17.40;99.90;;;;;;5053510;28;20187;-69
2023/10/02 04:07:12;;;;;;;39.95;20.92;;;17.40;99.90;;;;;;5054213;28;20237;-70
2023/10/02 04:09:38;;;;;;;42.28;20.92;;;17.40;99.90;;;;;;5053240;28;20194;-70
2023/10/02 04:12:06;;;;;;;46.17;21.52;;;17.40;99.90;;;;;;5054168;28;20179;-69
2023/10/02 04:14:33;;;;;;;42.42;22.00;;;17.30;99.90;;;;;;5048817;28;20188;-69
2023/10/02 04:17:20;;;;;;;41.38;20.63;;;17.30;99.90;;;;;;5051074;28;20253;-70
2023/10/02 04:19:49;;;;;;;40.75;20.77;;;17.30;99.90;;;;;;5052525;28;20199;-72
2023/10/02 04:22:19;;;;;;;39.83;20.90;;;17.30;99.90;;;;;;5051736;28;20607;-69
2023/10/02 04:25:04;;;;;;;42.22;21.30;;;17.30;99.90;;;;;;5034818;28;20655;-69
2023/10/02 04:32:49;;;;;;;45.50;21.98;;;17.30;99.90;;;;;;5052202;28;20207;-69
2023/10/02 04:38:07;;;;;;;39.75;19.70;;;17.30;99.90;;;;;;5052490;28;20262;-70
2023/10/02 04:40:52;;;;;;;41.30;21.58;;;17.30;99.90;;;;;;5052722;28;20602;-70
2023/10/02 04:43:19;;;;;;;40.42;21.90;;;17.30;99.90;;;;;;5050948;28;20682;-70
2023/10/02 04:46:01;;;;;;;47.53;21.10;;;17.40;99.90;;;;;;5053306;28;20569;-71
2023/10/02 04:48:42;;;;;;;44.67;20.58;;;17.40;99.90;;;;;;5051878;28;20249;-71
2023/10/02 04:51:12;;;;;;;44.45;21.08;;;17.40;99.90;;;;;;5051868;28;20274;-70
2023/10/02 04:53:45;;;;;;;45.88;21.80;;;17.50;99.90;;;;;;5051989;28;20188;-70
2023/10/02 04:56:21;;;;;;;39.40;20.92;;;17.50;99.90;;;;;;5048364;28;20215;-71
2023/10/02 04:58:51;;;;;;;47.08;21.73;;;17.50;99.90;;;;;;5051714;28;20230;-69
2023/10/02 05:04:18;;;;;;;44.33;20.85;;;17.40;99.90;;;;;;5043103;28;20642;-72
2023/10/02 05:06:44;;;;;;;42.13;21.77;;;17.40;99.90;;;;;;5050401;28;20237;-71
2023/10/02 05:11:50;;;;;;;43.65;22.15;;;17.40;99.90;;;;;;5052003;28;20209;-70
2023/10/02 05:14:26;;;;;;;45.60;21.35;;;17.40;99.90;;;;;;5051245;28;20183;-70
2023/10/02 05:22:40;;;;;;;46.30;21.70;;;17.30;99.90;;;;;;5045902;28;20249;-71
2023/10/02 05:25:07;;;;;;;43.42;21.58;;;17.30;99.90;;;;;;5051275;28;20183;-72
2023/10/02 05:27:36;;;;;;;49.00;22.02;;;17.30;99.90;;;;;;5049172;28;20691;-71
2023/10/02 05:30:14;;;;;;;43.92;23.55;;;17.30;99.90;;;;;;5050437;28;20531;-75
2023/10/02 05:32:41;;;;;;;46.97;23.00;;;17.20;99.90;;;;;;5049675;28;20194;-71
2023/10/02 05:37:42;;;;;;;52.72;27.27;;;17.20;99.90;;;;;;5051356;28;20187;-69
2023/10/02 05:42:53;;;;;;;47.83;22.35;;;17.20;99.90;;;;;;5052054;28;20195;-72
2023/10/02 05:45:37;;;;;;;46.47;22.40;;;17.10;99.90;;;;;;5050759;28;20211;-69
2023/10/02 05:48:08;;;;;;;43.25;22.55;;;17.10;99.90;;;;;;5049928;28;20183;-71
2023/10/02 05:50:40;;;;;;;44.22;22.65;;;17.10;99.90;;;;;;5048220;28;20562;-71
2023/10/02 05:53:07;;;;;;;45.63;21.95;;;17.10;99.90;;;;;;5049057;28;20213;-70
2023/10/02 05:55:56;;;;;;;41.80;21.52;;;17.00;99.90;;;;;;5028992;28;20210;-69
2023/10/02 05:58:31;;;;;;;48.70;22.48;;;17.00;99.90;;;;;;5044022;28;20194;-73
2023/10/02 06:01:02;;;;;;;44.13;21.85;;;17.00;99.90;;;;;;5049911;28;20290;-74
2023/10/02 06:03:34;;;;;;;44.15;22.67;;;17.00;99.90;;;;;;5051097;28;20217;-68
2023/10/02 06:06:17;;;;;;;45.13;22.38;;;17.10;99.90;;;;;;5051762;28;20206;-69
2023/10/02 06:09:28;;;;;;;43.80;22.15;;;17.10;99.90;;;;;;5045147;28;20266;-73
2023/10/02 06:12:02;;;;;;;47.38;22.33;;;17.20;99.90;;;;;;5045037;28;20194;-70
2023/10/02 06:14:28;;;;;;;45.25;22.35;;;17.20;99.90;;;;;;5051117;28;20190;-69
2023/10/02 06:16:54;;;;;;;39.15;20.90;;;17.30;99.90;;;;;;5051328;28;20187;-67
2023/10/02 06:19:20;;;;;;;40.13;21.30;;;17.30;99.90;;;;;;5047718;28;20201;-71
2023/10/02 06:22:00;;;;;;;46.63;22.50;;;17.30;99.90;;;;;;5049096;28;20190;-68
2023/10/02 06:24:30;;;;;;;43.42;22.00;;;17.30;99.90;;;;;;5049434;28;20189;-69
2023/10/02 06:26:58;;;;;;;43.50;21.63;;;17.30;99.90;;;;;;5048998;28;20179;-69
2023/10/02 06:29:24;;;;;;;39.72;20.95;;;17.30;99.90;;;;;;5050056;28;20698;-69
2023/10/02 06:32:05;;;;;;;40.42;21.80;;;17.30;99.90;;;;;;5049626;28;20233;-70
2023/10/02 06:34:39;;;;;;;41.78;21.55;;;17.30;99.90;;;;;;5051310;28;20197;-69
2023/10/02 06:37:13;;;;;;;40.28;20.95;;;17.30;99.90;;;;;;5048605;28;20187;-71
2023/10/02 06:39:45;;;;;;;48.40;21.90;;;17.30;99.90;;;;;;5050860;28;20207;-73
2023/10/02 06:42:17;;;;;;;46.42;22.30;;;17.30;99.90;;;;;;5046172;28;20249;-70
2023/10/02 06:44:53;;;;;;;42.20;21.92;;;17.40;99.90;;;;;;5049591;28;20201;-72
2023/10/02 06:47:24;;;;;;;44.10;22.50;;;17.40;99.90;;;;;;5049393;28;20261;-70
2023/10/02 06:50:02;;;;;;;39.65;21.35;;;17.30;99.90;;;;;;5045496;28;20191;-71
2023/10/02 06:52:34;;;;;;;38.15;21.23;;;17.40;99.90;;;;;;5038090;28;20182;-70
2023/10/02 06:55:03;;;;;;;42.22;21.00;;;17.40;99.90;;;;;;5044046;28;20179;-66
2023/10/02 06:57:31;;;;;;;41.50;21.52;;;17.40;99.90;;;;;;5030666;28;20192;-72
2023/10/02 06:59:57;;;;;;;40.78;21.45;;;17.40;99.90;;;;;;5045705;28;20288;-70
2023/10/02 07:02:26;;;;;;;44.67;21.95;;;17.50;99.90;;;;;;5028814;28;20564;-69
2023/10/02 07:04:55;;;;;;;44.40;22.20;;;17.50;99.90;;;;;;5049820;28;20187;-70
2023/10/02 07:07:26;;;;;;;43.58;21.95;;;17.50;99.90;;;;;;5050937;28;20206;-70
2023/10/02 07:09:55;;;;;;;38.50;20.65;;;17.60;99.90;;;;;;5050647;28;20689;-70
2023/10/02 07:12:27;;;;;;;41.05;22.13;;;17.60;99.90;;;;;;5049415;28;20657;-71
2023/10/02 07:15:10;;;;;;;40.38;20.48;;;17.60;99.90;;;;;;5050901;28;20229;-69
2023/10/02 07:17:47;;;;;;;42.47;22.38;;;17.60;99.90;;;;;;5049819;28;20238;-69
2023/10/02 07:20:20;;;;;;;45.03;22.08;;;17.70;99.90;;;;;;5047693;28;20229;-68
2023/10/02 07:22:49;;;;;;;42.33;21.85;;;17.70;99.90;;;;;;5047503;28;20185;-70
2023/10/02 07:25:24;;;;;;;41.72;21.30;;;17.80;99.90;;;;;;5050105;28;20183;-68
2023/10/02 07:27:51;;;;;;;39.97;20.33;;;17.90;99.90;;;;;;5048621;28;20558;-69
2023/10/02 07:30:25;;;;;;;46.25;22.10;;;17.90;99.90;;;;;;5050583;28;20191;-69
2023/10/02 07:32:53;;;;;;;39.35;21.42;;;18.00;99.90;;;;;;5049971;28;20202;-68
2023/10/02 07:35:21;;;;;;;41.55;20.73;;;18.00;99.90;;;;;;5050545;28;20262;-69
2023/10/02 07:37:58;;;;;;;38.42;21.60;;;18.10;99.90;;;;;;5049334;28;20195;-69
2023/10/02 07:40:51;;;;;;;39.53;20.88;;;18.20;99.90;;;;;;5032094;28;20219;-69
2023/10/02 07:43:18;;;;;;;41.53;21.48;;;18.20;99.90;;;;;;5054285;28;20186;-69
2023/10/02 07:46:14;;;;;;;40.08;21.30;;;18.30;99.90;;;;;;5048530;28;20647;-70
2023/10/02 07:48:41;;;;;;;44.25;22.10;;;18.30;99.90;;;;;;5051234;28;20183;-72
2023/10/02 07:51:10;;;;;;;39.45;20.42;;;18.40;99.90;;;;;;5052077;28;20317;-70
2023/10/02 07:53:40;;;;;;;40.00;20.52;;;18.50;99.90;;;;;;5046060;28;20219;-71
2023/10/02 07:56:14;;;;;;;41.20;21.67;;;18.60;99.90;;;;;;5048339;28;20265;-69
2023/10/02 07:58:54;;;;;;;48.13;22.33;;;18.60;99.90;;;;;;5052567;28;20258;-70
2023/10/02 08:01:23;;;;;;;41.97;21.02;;;18.60;99.90;;;;;;5043199;28;20291;-70
2023/10/02 08:03:50;;;;;;;48.03;21.50;;;18.70;99.90;;;;;;5053341;28;20199;-71
2023/10/02 08:11:35;;;;;;;44.58;21.20;;;18.90;99.90;;;;;;5050494;28;20233;-70
2023/10/02 08:14:03;;;;;;;46.28;22.13;;;18.90;99.90;;;;;;5053385;28;20275;-74
2023/10/02 08:16:33;;;;;;;45.30;21.75;;;19.00;99.90;;;;;;5052493;28;20297;-70
2023/10/02 08:19:01;;;;;;;44.28;21.80;;;19.10;99.90;;;;;;5038601;28;20262;-69
2023/10/02 08:21:46;;;;;;;40.88;22.05;;;19.10;99.90;;;;;;5050086;28;20223;-71
2023/10/02 08:24:13;;;;;;;42.50;21.27;;;19.10;99.90;;;;;;5052531;28;20266;-71
2023/10/02 08:26:43;;;;;;;45.92;21.33;;;19.20;99.90;;;;;;5052388;28;20259;-69
2023/10/02 08:29:14;;;;;;;44.45;21.95;;;19.20;99.90;;;;;;5060363;28;20179;-69
2023/10/02 08:31:49;;;;;;;46.22;21.65;;;19.30;99.90;;;;;;5059019;28;20183;-69
2023/10/02 08:34:19;;;;;;;44.05;21.73;;;19.30;99.90;;;;;;5052281;28;20193;-71
2023/10/02 08:37:04;;;;;;;40.83;22.98;;;19.40;99.90;;;;;;5051725;28;20183;-69
2023/10/02 08:39:38;;;;;;;45.38;22.27;;;19.40;99.90;;;;;;5046134;28;20210;-69
2023/10/02 08:42:09;;;;;;;47.88;22.60;;;19.50;99.90;;;;;;5041441;28;20179;-69
2023/10/02 08:44:42;;;;;;;43.80;21.48;;;19.60;99.90;;;;;;5065900;28;20193;-68
2023/10/02 08:47:11;;;;;;;47.35;22.35;;;19.60;99.90;;;;;;5051893;28;20217;-71
2023/10/02 08:49:38;;;;;;;40.17;21.90;;;19.80;99.90;;;;;;5053941;28;20205;-69
2023/10/02 08:52:09;;;;;;;45.80;22.67;;;19.80;99.90;;;;;;5043115;28;20184;-68
2023/10/02 08:54:35;;;;;;;43.58;21.58;;;19.90;99.90;;;;;;5046399;28;20623;-68
2023/10/02 08:57:18;;;;;;;44.00;23.52;;;20.00;99.90;;;;;;5038011;28;20274;-68
2023/10/02 09:00:00;;;;;;;44.10;24.25;;;20.10;99.90;;;;;;5051024;28;20697;-71
2023/10/02 09:02:26;;;;;;;55.95;25.55;;;20.10;99.90;;;;;;5050649;28;20206;-72
2023/10/02 09:04:59;;;;;;;50.35;23.77;;;20.10;99.90;;;;;;5051647;28;20259;-69
2023/10/02 09:10:24;;;;;;;50.33;24.15;;;20.20;99.90;;;;;;5033510;28;20191;-68
2023/10/02 09:13:17;;;;;;;48.10;23.95;;;20.30;99.90;;;;;;5050327;28;20871;-68
2023/10/02 09:15:48;;;;;;;50.55;24.05;;;20.30;99.90;;;;;;5034748;28;20651;-67
2023/10/02 09:18:34;;;;;;;43.47;22.90;;;20.40;99.90;;;;;;5052504;28;20195;-71
2023/10/02 09:21:15;;;;;;;51.60;23.48;;;20.40;99.90;;;;;;5050004;28;20738;-67
2023/10/02 09:23:51;;;;;;;47.45;23.05;;;20.50;99.90;;;;;;5050740;28;20179;-69
2023/10/02 09:26:17;;;;;;;49.30;23.27;;;20.70;99.90;;;;;;5051950;28;20182;-69
2023/10/02 09:28:56;;;;;;;41.03;21.10;;;20.80;99.90;;;;;;5050812;28;20579;-68
2023/10/02 09:31:24;;;;;;;48.58;21.77;;;20.80;99.90;;;;;;5052038;28;21076;-68
2023/10/02 09:33:51;;;;;;;49.45;22.52;;;20.90;99.90;;;;;;5050738;28;20262;-71
2023/10/02 09:36:34;;;;;;;45.42;21.52;;;21.00;99.90;;;;;;5051456;28;20643;-72
2023/10/02 09:39:31;;;;;;;46.17;21.42;;;21.00;99.90;;;;;;5039067;28;20178;-68
2023/10/02 09:42:05;;;;;;;42.88;20.85;;;21.10;99.90;;;;;;5048782;28;20199;-67
2023/10/02 09:44:45;;;;;;;43.72;21.67;;;21.10;99.90;;;;;;5049995;28;20262;-68
2023/10/02 09:47:24;;;;;;;46.85;22.40;;;21.10;99.90;;;;;;5039455;28;20315;-70
2023/10/02 09:50:25;;;;;;;45.30;21.70;;;21.10;99.90;;;;;;5051851;28;20257;-68
2023/10/02 09:53:08;;;;;;;45.97;22.83;;;21.00;99.90;;;;;;5044068;28;20306;-74
2023/10/02 09:55:57;;;;;;;46.85;22.00;;;21.00;99.90;;;;;;5048221;28;20181;-69
2023/10/02 09:58:35;;;;;;;44.28;21.40;;;21.00;99.90;;;;;;5049427;28;20187;-69
2023/10/02 10:10:45;;;;;;;47.33;21.92;;;21.20;99.90;;;;;;5241867;23;20236;-70
2023/10/02 10:13:24;;;;;;;47.08;23.33;;;21.30;99.90;;;;;;4889841;29;20647;-69
2023/10/02 10:15:51;;;;;;;45.53;22.83;;;21.30;99.90;;;;;;4895862;29;20267;-70
2023/10/02 10:18:17;;;;;;;48.20;21.77;;;21.40;99.90;;;;;;4894882;29;20191;-71
2023/10/02 10:20:44;;;;;;;43.15;21.27;;;21.40;99.90;;;;;;4894784;29;20224;-69
2023/10/02 10:23:31;;;;;;;49.15;21.48;;;21.50;99.90;;;;;;4890493;29;20189;-70
2023/10/02 10:26:07;;;;;;;43.63;21.40;;;21.60;99.90;;;;;;4892919;29;20201;-73
2023/10/02 10:28:50;;;;;;;41.25;21.65;;;21.70;99.90;;;;;;4894661;29;20191;-70
2023/10/02 10:31:29;;;;;;;41.72;20.95;;;21.70;99.90;;;;;;4895950;29;20192;-73
2023/10/02 10:33:56;;;;;;;48.45;21.77;;;21.70;99.90;;;;;;4896518;29;20192;-70
2023/10/02 10:36:36;;;;;;;43.72;20.98;;;21.80;99.90;;;;;;4895143;29;20615;-71
2023/10/02 10:39:30;;;;;;;40.35;21.02;;;21.80;99.90;;;;;;4894747;29;20514;-70
2023/10/02 10:41:57;;;;;;;39.40;21.65;;;21.90;99.90;;;;;;4895513;29;20315;-71
2023/10/02 10:44:35;;;;;;;44.08;22.30;;;22.00;99.90;;;;;;4896475;29;20261;-70
2023/10/02 10:47:03;;;;;;;41.85;21.88;;;22.00;99.90;;;;;;4895861;29;20672;-70
2023/10/02 10:50:26;;;;;;;46.90;23.25;;;22.10;99.90;;;;;;4896345;29;20193;-71
2023/10/02 10:52:38;;;;;;;42.45;21.65;;;22.10;99.90;;;;;;4892743;29;20199;-70
2023/10/02 10:55:32;;;;;;;44.38;22.65;;;22.20;99.90;;;;;;4888110;29;20201;-69
2023/10/02 10:57:58;;;;;;;42.13;21.67;;;22.20;99.90;;;;;;4896272;29;20200;-69
2023/10/02 11:00:24;;;;;;;42.17;22.67;;;22.10;99.90;;;;;;4895726;29;20216;-69
2023/10/02 11:03:07;;;;;;;50.45;23.88;;;22.10;99.90;;;;;;4894928;29;20204;-71
2023/10/02 11:05:35;;;;;;;45.17;22.67;;;22.10;99.90;;;;;;4884975;29;20200;-71
2023/10/02 11:08:23;;;;;;;48.97;23.65;;;22.10;99.90;;;;;;4895757;29;20193;-69
2023/10/02 11:11:09;;;;;;;47.95;23.00;;;22.10;99.90;;;;;;4895902;29;20213;-71
2023/10/02 11:13:59;;;;;;;50.92;24.10;;;22.00;99.90;;;;;;4893272;29;20185;-70
2023/10/02 11:16:36;;;;;;;43.80;24.13;;;22.00;99.90;;;;;;4896953;29;20193;-69
2023/10/02 11:19:23;;;;;;;43.08;23.33;;;22.00;99.90;;;;;;4899732;29;20644;-70
2023/10/02 11:22:14;;;;;;;46.00;22.02;;;22.10;99.90;;;;;;4888523;29;20216;-71
2023/10/02 11:24:42;;;;;;;44.85;22.88;;;22.10;99.90;;;;;;4898081;29;20236;-71
2023/10/02 11:27:11;;;;;;;49.05;22.45;;;22.10;99.90;;;;;;4893519;29;20197;-71
2023/10/02 11:29:40;;;;;;;42.30;22.40;;;22.20;99.90;;;;;;4888239;29;20185;-72
2023/10/02 11:32:23;;;;;;;39.30;22.00;;;22.20;99.90;;;;;;4892766;29;20199;-69
2023/10/02 11:34:59;;;;;;;44.03;22.02;;;22.40;99.90;;;;;;4892231;29;20639;-70
2023/10/02 11:37:28;;;;;;;46.28;20.83;;;22.40;99.90;;;;;;4891941;29;20188;-71
2023/10/02 11:39:55;;;;;;;33.63;19.45;;;22.60;99.90;;;;;;4899383;29;20268;-70
2023/10/02 11:42:23;;;;;;;43.22;21.10;;;22.60;99.90;;;;;;4898544;29;20188;-69
2023/10/02 11:44:49;;;;;;;41.30;20.88;;;22.70;99.90;;;;;;4899390;29;20253;-70
2023/10/02 11:47:15;;;;;;;42.15;21.17;;;22.70;99.90;;;;;;4897863;29;20657;-71
2023/10/02 11:49:42;;;;;;;35.20;20.13;;;22.80;99.90;;;;;;4898125;29;20227;-70
2023/10/02 11:52:09;;;;;;;37.40;20.60;;;22.80;99.90;;;;;;4898541;29;20201;-72
2023/10/02 11:54:42;;;;;;;38.50;20.30;;;22.90;99.90;;;;;;4898442;29;20188;-70
2023/10/02 11:57:09;;;;;;;40.13;20.50;;;22.90;99.90;;;;;;4897848;29;20333;-70
2023/10/02 11:59:37;;;;;;;40.95;21.15;;;23.00;99.90;;;;;;4898081;29;20195;-69
2023/10/02 12:02:04;;;;;;;34.33;20.58;;;23.00;99.90;;;;;;4891883;29;20197;-70
2023/10/02 12:04:31;;;;;;;37.42;20.85;;;23.00;99.90;;;;;;4894450;29;20272;-72
2023/10/02 12:06:58;;;;;;;40.33;21.83;;;23.00;99.90;;;;;;4890720;29;20193;-71
2023/10/02 12:09:25;;;;;;;37.85;20.42;;;23.00;99.90;;;;;;4879556;29;20324;-69
2023/10/02 12:11:51;;;;;;;40.15;21.13;;;23.00;99.90;;;;;;4897803;29;20200;-71
2023/10/02 12:14:18;;;;;;;35.53;20.30;;;23.00;99.90;;;;;;4896908;29;20207;-71
2023/10/02 12:16:44;;;;;;;42.03;21.60;;;23.10;99.90;;;;;;4898086;29;20184;-69
2023/10/02 12:19:10;;;;;;;39.72;21.58;;;23.20;99.90;;;;;;4896077;29;20221;-71
2023/10/02 12:21:37;;;;;;;39.90;21.60;;;23.10;99.90;;;;;;4896430;29;20637;-69
2023/10/02 12:24:05;;;;;;;41.72;22.10;;;23.20;99.90;;;;;;4897794;29;20224;-72
2023/10/02 12:26:30;;;;;;;41.97;22.65;;;23.20;99.90;;;;;;4895668;29;20284;-74
2023/10/02 12:28:56;;;;;;;43.08;23.73;;;23.10;99.90;;;;;;4897929;29;20629;-72
2023/10/02 12:31:23;;;;;;;44.60;23.92;;;23.20;99.90;;;;;;4896909;29;20193;-70
2023/10/02 12:33:56;;;;;;;49.53;24.58;;;23.20;99.90;;;;;;4880931;29;20249;-70
2023/10/02 12:36:23;;;;;;;42.85;23.63;;;23.10;99.90;;;;;;4894960;29;20646;-71
2023/10/02 12:38:50;;;;;;;43.83;24.67;;;23.20;99.90;;;;;;4895639;29;20185;-70
2023/10/02 12:41:24;;;;;;;46.65;25.63;;;23.20;99.90;;;;;;4897359;29;20271;-71
2023/10/02 12:43:58;;;;;;;43.13;24.15;;;23.20;99.90;;;;;;4897914;29;20200;-71
2023/10/02 12:46:26;;;;;;;43.08;24.05;;;23.30;99.90;;;;;;4894155;29;20640;-71
2023/10/02 12:48:55;;;;;;;40.75;23.95;;;23.30;99.90;;;;;;4888306;29;20192;-69
2023/10/02 12:51:21;;;;;;;42.05;24.10;;;23.40;99.90;;;;;;4895214;29;20237;-71
2023/10/02 12:53:47;;;;;;;47.45;23.92;;;23.30;99.90;;;;;;4894223;29;20282;-71
2023/10/02 12:56:26;;;;;;;48.22;24.27;;;23.40;99.90;;;;;;4896378;29;20204;-70
2023/10/02 12:58:54;;;;;;;46.90;24.10;;;23.40;99.90;;;;;;4897430;29;20271;-71
2023/10/02 13:01:27;;;;;;;46.70;23.17;;;23.40;99.90;;;;;;4895677;29;20268;-73
2023/10/02 13:03:56;;;;;;;40.90;22.58;;;23.40;99.90;;;;;;4895979;29;20216;-71
2023/10/02 13:06:26;;;;;;;45.83;22.38;;;23.40;99.90;;;;;;4894229;29;20195;-70
2023/10/02 13:11:39;;;;;;;40.20;22.50;;;23.40;99.90;;;;;;4895795;29;20291;-69
2023/10/02 13:14:07;;;;;;;44.88;23.25;;;23.40;99.90;;;;;;4896472;29;20651;-71
2023/10/02 13:16:37;;;;;;;45.35;22.77;;;23.40;99.90;;;;;;4897196;29;20506;-69
2023/10/02 13:19:06;;;;;;;39.15;21.85;;;23.40;99.90;;;;;;4896218;29;20193;-70
2023/10/02 13:21:32;;;;;;;40.97;22.98;;;23.40;99.90;;;;;;4895805;29;20280;-71
2023/10/02 13:23:57;;;;;;;44.83;23.38;;;23.50;99.90;;;;;;4896719;29;20610;-69
2023/10/02 13:26:23;;;;;;;39.15;22.55;;;23.50;99.90;;;;;;4895149;29;20283;-70
2023/10/02 13:28:54;;;;;;;41.63;22.80;;;23.50;99.90;;;;;;4895959;29;20196;-72
2023/10/02 13:31:20;;;;;;;35.20;22.40;;;23.50;99.90;;;;;;4894982;29;20641;-69
2023/10/02 13:38:18;;;;;;;41.45;22.38;;;23.60;99.90;;;;;;4892920;29;20268;-70
2023/10/02 13:40:44;;;;;;;39.40;23.30;;;23.50;99.90;;;;;;4890067;29;20221;-70
2023/10/02 13:43:10;;;;;;;38.25;21.67;;;23.60;99.90;;;;;;4894261;29;20189;-71
2023/10/02 13:45:36;;;;;;;42.08;22.88;;;23.50;99.90;;;;;;4896844;29;20220;-69
2023/10/02 13:48:04;;;;;;;40.90;22.23;;;23.50;99.90;;;;;;4895666;29;20639;-70
2023/10/02 13:50:35;;;;;;;49.35;23.40;;;23.40;99.90;;;;;;4895270;29;20195;-70
2023/10/02 13:53:01;;;;;;;39.22;22.33;;;23.50;99.90;;;;;;4895779;29;20196;-70
2023/10/02 13:55:27;;;;;;;47.10;25.10;;;23.50;99.90;;;;;;4896166;29;20255;-71
2023/10/02 13:57:55;;;;;;;40.67;24.08;;;23.50;99.90;;;;;;4896488;29;20189;-70